Du har inga inställningar för hoppväder.nu

Hoppväder.nu

Senast uppdaterat 05:45

UTC-tid

2021-03-01 kl. 04:45


Sol och måne

Solen går upp 6:58 och går ner 17:26 (beräknade cirkatider)
Nästa fullmåne blir om 27 dagar (2021-03-28)

METAR

ESOE (Örebro)
(25 minuter sedan)
ESOE 010420Z 22009KT CAVOK 02/01 Q1025=



ESOK (Karlstad)
(25 minuter sedan)
ESOK 010420Z AUTO 24005KT 9999 R03///// R21/P1500N NCD M02/M02 Q1026=



ESGR (Skövde)
(25 minuter sedan)
ESGR 010420Z AUTO 16004KT 9999 NCD 01/M01 Q1027=



ESSD (Borlänge)
(25 minuter sedan)
ESSD 010420Z AUTO 00000KT 9999 NCD M02/M04 Q1022=



ESOW (Västerås)
(25 minuter sedan)
ESOW 010420Z AUTO 22007KT 9999 NCD 01/M02 Q1024=



TAF

ESOE (Örebro)
(135 minuter sedan)
ESOE 010230Z 0103/0109 24009KT CAVOK=



ESOK (Karlstad)
ESOK



ESGR (Skövde)
ESGR



ESSD (Borlänge)
ESSD



ESOW (Västerås)
ESOW





Kodnycklar till TAF och METAR






LHP

(Örebro är område se32g i Delområde 4)

Prognos är inte uppdaterad






Preliminär prognos